Time;durP1;ratioP1;P1;durP2;ratioP2;P2;SDS_P1;SDS_P2;PMS_P1;PMS_P2;Temp;Humidity;BMP_temperature;BMP_pressure;BME280_temperature;BME280_humidity;BME280_pressure;Samples;Min_cycle;Max_cycle;Signal;HPM_P1;HPM_P2
2023/05/20 00:01:57;;;;;;;1.50;0.77;;;24.70;59.50;;;;;;10445133;28;20111;-23
2023/05/20 00:07:00;;;;;;;1.83;0.80;;;24.70;59.60;;;;;;10448538;28;20045;-23
2023/05/20 00:12:02;;;;;;;3.13;1.02;;;24.70;59.80;;;;;;10451664;28;20049;-23
2023/05/20 00:17:04;;;;;;;;;;;24.70;60.30;;;;;;10443828;28;20161;-24
2023/05/20 00:22:07;;;;;;;1.60;0.85;;;24.60;60.10;;;;;;10448344;28;20281;-25
2023/05/20 00:27:09;;;;;;;3.33;1.50;;;24.50;60.00;;;;;;10448350;28;20122;-24
2023/05/20 00:32:11;;;;;;;;;;;24.50;60.30;;;;;;10456539;28;20213;-25
2023/05/20 00:37:14;;;;;;;1.63;0.68;;;24.50;60.50;;;;;;10451415;28;20011;-25
2023/05/20 00:42:21;;;;;;;1.50;0.85;;;24.40;60.60;;;;;;10451163;28;20058;-25
2023/05/20 00:47:28;;;;;;;3.08;1.02;;;24.30;60.80;;;;;;10450061;28;20044;-24
2023/05/20 00:52:32;;;;;;;4.35;1.02;;;24.40;60.90;;;;;;10453342;28;20098;-24
2023/05/20 00:57:33;;;;;;;2.42;1.13;;;24.40;61.00;;;;;;10436627;28;20136;-24
2023/05/20 01:02:35;;;;;;;2.00;1.17;;;24.30;61.20;;;;;;10439769;28;20596;-25
2023/05/20 01:07:38;;;;;;;;;;;24.30;61.20;;;;;;10447729;28;20049;-24
2023/05/20 01:12:43;;;;;;;1.65;0.80;;;24.30;61.40;;;;;;10441569;28;19924;-26
2023/05/20 01:17:48;;;;;;;2.63;1.00;;;24.20;61.30;;;;;;10454024;28;20144;-24
2023/05/20 01:22:54;;;;;;;6.13;1.23;;;24.20;61.50;;;;;;10450579;28;20123;-23
2023/05/20 01:27:57;;;;;;;1.63;0.85;;;24.20;61.70;;;;;;10455209;28;20715;-24
2023/05/20 01:33:05;;;;;;;5.07;0.75;;;24.20;61.50;;;;;;10457647;28;20056;-24
2023/05/20 01:38:09;;;;;;;1.25;0.73;;;24.10;61.70;;;;;;10470445;28;20057;-24
2023/05/20 01:43:11;;;;;;;1.08;0.70;;;24.00;61.60;;;;;;10448443;28;20049;-25
2023/05/20 01:48:13;;;;;;;1.20;0.70;;;24.00;61.90;;;;;;10442767;28;20092;-25
2023/05/20 01:53:16;;;;;;;;;;;23.90;62.10;;;;;;10453225;28;20071;-25
2023/05/20 01:58:18;;;;;;;;;;;23.90;62.10;;;;;;10445144;28;20004;-24
2023/05/20 02:03:19;;;;;;;;;;;23.90;62.20;;;;;;10440581;28;19932;-25
2023/05/20 02:08:22;;;;;;;;;;;23.80;62.10;;;;;;10452870;28;20378;-24
2023/05/20 02:13:24;;;;;;;;;;;23.90;62.80;;;;;;10450873;28;19951;-25
2023/05/20 02:18:26;;;;;;;;;;;23.90;62.00;;;;;;10451133;28;20005;-25
2023/05/20 02:23:29;;;;;;;;;;;23.70;62.60;;;;;;10444066;28;20389;-24
2023/05/20 02:28:31;;;;;;;;;;;23.80;61.80;;;;;;10451070;28;19920;-23
2023/05/20 02:33:32;;;;;;;;;;;23.70;62.90;;;;;;10450291;28;20428;-22
2023/05/20 02:38:36;;;;;;;;;;;23.70;62.60;;;;;;10450974;28;19936;-23
2023/05/20 02:43:39;;;;;;;;;;;23.70;62.50;;;;;;10456441;28;19920;-23
2023/05/20 02:48:40;;;;;;;;;;;23.70;63.30;;;;;;10452599;28;19960;-24
2023/05/20 02:53:43;;;;;;;;;;;23.60;62.50;;;;;;10444324;28;20329;-23
2023/05/20 03:15:31;;;;;;;1.08;0.80;;;23.60;62.30;;;;;;10569068;27;20194;-25
2023/05/20 03:20:33;;;;;;;1.25;0.85;;;23.50;63.30;;;;;;10532668;28;20036;-22
2023/05/20 03:25:35;;;;;;;3.10;1.13;;;23.40;62.30;;;;;;10537385;28;20113;-23
2023/05/20 03:30:38;;;;;;;1.67;0.80;;;23.40;63.70;;;;;;10527690;28;20500;-23
2023/05/20 03:35:40;;;;;;;2.17;1.27;;;23.30;63.40;;;;;;10533692;28;20079;-23
2023/05/20 03:40:42;;;;;;;1.30;0.88;;;23.30;63.10;;;;;;10534145;28;20459;-23
2023/05/20 03:45:45;;;;;;;;;;;23.30;63.80;;;;;;10534191;28;20135;-22
2023/05/20 03:50:47;;;;;;;2.22;1.13;;;23.30;64.70;;;;;;10536114;28;20007;-21
2023/05/20 03:55:48;;;;;;;2.67;1.00;;;23.20;64.20;;;;;;10531533;28;20452;-22
2023/05/20 04:00:52;;;;;;;1.08;0.85;;;23.20;63.50;;;;;;10527426;28;20152;-23
2023/05/20 04:05:54;;;;;;;2.03;0.75;;;23.20;64.60;;;;;;10525214;28;20465;-24
2023/05/20 04:10:56;;;;;;;;;;;23.10;65.30;;;;;;10538246;28;20105;-23
2023/05/20 04:16:00;;;;;;;2.05;0.80;;;23.00;65.30;;;;;;10542951;28;19924;-24
2023/05/20 04:21:02;;;;;;;2.50;1.45;;;23.20;64.40;;;;;;10541359;28;20055;-24
2023/05/20 04:26:03;;;;;;;;;;;23.10;64.90;;;;;;10520080;28;20120;-23
2023/05/20 04:31:07;;;;;;;0.50;0.50;;;23.10;65.50;;;;;;10504019;28;19924;-23
2023/05/20 04:36:10;;;;;;;4.43;1.33;;;23.00;64.90;;;;;;10516069;28;21307;-24
2023/05/20 04:41:12;;;;;;;1.85;0.77;;;23.00;64.60;;;;;;10513160;28;20044;-23
2023/05/20 04:46:15;;;;;;;;;;;23.00;63.80;;;;;;10506360;28;20075;-24
2023/05/20 04:51:17;;;;;;;1.45;0.55;;;23.00;64.50;;;;;;10502918;28;19921;-23
2023/05/20 04:56:19;;;;;;;;;;;23.00;64.80;;;;;;10507827;28;20047;-23
2023/05/20 05:01:22;;;;;;;1.63;1.17;;;22.90;64.70;;;;;;10509692;28;20004;-23
2023/05/20 05:06:24;;;;;;;1.58;0.95;;;23.00;65.20;;;;;;10508775;28;20050;-24
2023/05/20 05:11:26;;;;;;;1.15;0.98;;;23.00;65.40;;;;;;10509672;28;20141;-23
2023/05/20 05:16:29;;;;;;;1.90;0.90;;;23.00;65.00;;;;;;10506453;28;20067;-24
2023/05/20 05:21:31;;;;;;;2.30;1.00;;;23.00;65.30;;;;;;10506789;28;20126;-24
2023/05/20 05:26:33;;;;;;;1.88;0.80;;;23.00;64.10;;;;;;10497741;28;20132;-24
2023/05/20 05:31:36;;;;;;;;;;;22.60;65.30;;;;;;10493731;28;20144;-25
2023/05/20 05:36:40;;;;;;;3.67;1.20;;;22.50;65.30;;;;;;10495451;28;20011;-24
2023/05/20 05:41:41;;;;;;;3.45;1.23;;;22.40;65.30;;;;;;10499379;28;20056;-22
2023/05/20 05:46:45;;;;;;;3.80;1.08;;;22.40;65.20;;;;;;10490306;28;20048;-24
2023/05/20 05:55:10;;;;;;;2.70;1.45;;;22.20;64.90;;;;;;10517591;27;20118;-25
2023/05/20 06:00:13;;;;;;;2.10;1.40;;;22.20;65.30;;;;;;10485343;28;20643;-21
2023/05/20 06:05:14;;;;;;;3.08;1.15;;;22.30;64.30;;;;;;10478253;28;20049;-22
2023/05/20 06:10:18;;;;;;;1.50;0.85;;;22.20;64.70;;;;;;10483566;28;20516;-24
2023/05/20 06:15:20;;;;;;;1.63;1.02;;;22.30;64.50;;;;;;10483802;28;20113;-23
2023/05/20 06:20:21;;;;;;;2.92;1.05;;;22.30;64.20;;;;;;10481378;28;20111;-23
2023/05/20 06:25:25;;;;;;;2.00;1.25;;;22.20;64.30;;;;;;10476277;28;20512;-24
2023/05/20 06:30:26;;;;;;;1.67;1.20;;;22.30;63.70;;;;;;10481889;28;20055;-23
2023/05/20 06:35:28;;;;;;;1.55;1.20;;;22.50;63.60;;;;;;10480416;28;20044;-23
2023/05/20 06:40:32;;;;;;;2.40;1.15;;;22.60;63.30;;;;;;10480676;28;20074;-24
2023/05/20 06:45:33;;;;;;;2.00;1.25;;;22.70;62.80;;;;;;10469260;28;20060;-23
2023/05/20 06:50:35;;;;;;;6.68;1.35;;;22.70;62.80;;;;;;10473133;28;20505;-24
2023/05/20 06:55:38;;;;;;;4.18;1.27;;;22.60;62.70;;;;;;10478595;28;20538;-24
2023/05/20 07:00:40;;;;;;;2.47;1.08;;;22.70;62.50;;;;;;10482756;28;20051;-24
2023/05/20 07:05:42;;;;;;;2.65;1.00;;;22.70;62.70;;;;;;10452115;28;20048;-24
2023/05/20 07:10:45;;;;;;;5.40;1.38;;;22.70;62.50;;;;;;10439327;28;20145;-24
2023/05/20 07:15:47;;;;;;;4.03;1.10;;;22.60;62.30;;;;;;10440720;28;20045;-25
2023/05/20 07:20:49;;;;;;;4.25;1.30;;;22.70;63.30;;;;;;10440930;28;20120;-23
2023/05/20 07:25:53;;;;;;;2.88;1.02;;;22.80;62.40;;;;;;10443711;28;20044;-24
2023/05/20 07:30:56;;;;;;;4.28;1.45;;;22.80;62.40;;;;;;10442862;28;20080;-24
2023/05/20 07:35:58;;;;;;;2.17;1.05;;;22.90;61.80;;;;;;10457199;28;20052;-24
2023/05/20 07:41:01;;;;;;;2.05;1.13;;;22.70;62.50;;;;;;10435405;28;20684;-34
2023/05/20 07:46:03;;;;;;;4.13;1.92;;;22.70;62.00;;;;;;10450792;28;20064;-28
2023/05/20 07:51:05;;;;;;;5.65;3.25;;;22.90;62.40;;;;;;10444486;28;20132;-24
2023/05/20 07:56:08;;;;;;;2.40;1.08;;;22.90;61.10;;;;;;10444222;28;20144;-25
2023/05/20 08:01:10;;;;;;;2.55;1.30;;;23.40;60.50;;;;;;10454006;28;20663;-24
2023/05/20 08:06:12;;;;;;;2.45;1.27;;;23.40;60.00;;;;;;10438822;28;20477;-24
2023/05/20 08:11:15;;;;;;;2.28;1.20;;;23.20;60.90;;;;;;10451375;28;20106;-24
2023/05/20 08:16:17;;;;;;;2.65;1.25;;;23.30;60.60;;;;;;10456241;28;20102;-24
2023/05/20 08:21:20;;;;;;;2.40;1.33;;;23.20;59.90;;;;;;10447040;28;20091;-24
2023/05/20 08:26:24;;;;;;;3.95;1.35;;;23.20;60.40;;;;;;10445975;28;20049;-24
2023/05/20 08:31:25;;;;;;;3.58;1.85;;;23.20;60.30;;;;;;10444419;28;20056;-24
2023/05/20 08:36:27;;;;;;;;;;;23.10;59.80;;;;;;10450817;28;20076;-24
2023/05/20 08:41:30;;;;;;;1.80;1.00;;;23.40;59.20;;;;;;10440550;28;20035;-24
2023/05/20 08:46:34;;;;;;;2.50;1.08;;;23.80;57.00;;;;;;10444744;28;20550;-24
2023/05/20 08:51:37;;;;;;;3.00;1.40;;;23.60;58.90;;;;;;10441620;28;20049;-24
2023/05/20 08:56:41;;;;;;;2.03;1.15;;;23.50;59.20;;;;;;10434440;28;20044;-24
2023/05/20 09:01:43;;;;;;;2.33;1.10;;;23.90;57.20;;;;;;10441325;28;20421;-23
2023/05/20 09:06:46;;;;;;;2.72;1.13;;;23.80;58.40;;;;;;10442083;28;20130;-23
2023/05/20 09:11:49;;;;;;;3.42;1.15;;;23.60;58.40;;;;;;10432909;28;20041;-24
2023/05/20 09:16:51;;;;;;;2.03;1.05;;;23.40;58.80;;;;;;10439599;28;20195;-23
2023/05/20 09:21:54;;;;;;;1.85;1.13;;;23.90;57.30;;;;;;10439367;28;20068;-25
2023/05/20 09:26:57;;;;;;;2.00;1.23;;;23.80;57.40;;;;;;10439723;28;20048;-23
2023/05/20 09:32:02;;;;;;;2.30;1.10;;;23.90;57.10;;;;;;10431449;28;20887;-24
2023/05/20 09:37:06;;;;;;;2.33;1.30;;;23.90;56.60;;;;;;10430418;28;20474;-22
2023/05/20 09:42:15;;;;;;;4.68;1.25;;;23.80;57.00;;;;;;10432823;28;20059;-25
2023/05/20 09:47:18;;;;;;;5.05;1.15;;;23.70;57.60;;;;;;10433247;28;20057;-23
2023/05/20 09:52:20;;;;;;;3.05;1.25;;;24.10;56.70;;;;;;10436797;28;20135;-23
2023/05/20 09:57:25;;;;;;;5.55;1.20;;;24.10;56.00;;;;;;10423140;28;20059;-22
2023/05/20 10:02:27;;;;;;;2.38;0.85;;;23.80;56.40;;;;;;10432964;28;20045;-24
2023/05/20 10:07:52;;;;;;;2.90;1.52;;;24.10;57.10;;;;;;10428574;28;20037;-24
2023/05/20 10:13:02;;;;;;;1.58;1.10;;;24.70;55.30;;;;;;10421308;28;21624;-25
2023/05/20 10:18:15;;;;;;;3.42;2.17;;;24.30;56.10;;;;;;10429443;28;20055;-23
2023/05/20 10:23:23;;;;;;;2.33;1.25;;;24.50;55.60;;;;;;10438625;28;20045;-24
2023/05/20 10:28:31;;;;;;;1.83;0.98;;;24.50;55.90;;;;;;10438027;28;20107;-23
2023/05/20 10:33:42;;;;;;;1.23;0.98;;;24.50;56.30;;;;;;10437439;28;20084;-24
2023/05/20 10:38:53;;;;;;;1.20;0.63;;;24.60;56.30;;;;;;10429748;28;20160;-23
2023/05/20 10:44:04;;;;;;;1.73;1.13;;;24.90;55.60;;;;;;10446508;28;20733;-24
2023/05/20 10:49:18;;;;;;;1.33;0.73;;;24.50;56.40;;;;;;10445464;28;20783;-23
2023/05/20 10:54:20;;;;;;;0.93;0.80;;;24.50;56.50;;;;;;10444637;28;20056;-24
2023/05/20 10:59:23;;;;;;;1.70;0.98;;;24.60;53.80;;;;;;10446744;28;20051;-22
2023/05/20 11:04:25;;;;;;;2.53;1.10;;;24.80;56.00;;;;;;10447841;28;20055;-24
2023/05/20 11:09:27;;;;;;;1.63;1.05;;;24.70;54.00;;;;;;10447700;28;20119;-21
2023/05/20 11:14:30;;;;;;;1.48;0.98;;;24.70;55.00;;;;;;10446754;28;20052;-22
2023/05/20 11:19:32;;;;;;;1.33;0.70;;;25.30;55.20;;;;;;10448275;28;20099;-22
2023/05/20 11:24:34;;;;;;;1.27;1.10;;;26.10;54.60;;;;;;10447961;28;20094;-23
2023/05/20 11:29:39;;;;;;;1.13;0.75;;;25.30;54.40;;;;;;10445572;28;20601;-23
2023/05/20 11:34:41;;;;;;;1.30;0.90;;;25.70;53.00;;;;;;10434979;28;20464;-23
2023/05/20 11:39:43;;;;;;;2.88;1.20;;;26.00;51.90;;;;;;10440460;28;20394;-23
2023/05/20 11:44:47;;;;;;;3.33;0.85;;;26.00;50.50;;;;;;10443930;28;20049;-22
2023/05/20 11:49:49;;;;;;;5.57;1.17;;;26.10;52.20;;;;;;10442936;28;20506;-22
2023/05/20 11:54:52;;;;;;;1.35;0.80;;;25.70;51.40;;;;;;10442418;28;20056;-23
2023/05/20 11:59:56;;;;;;;1.17;1.00;;;25.80;51.60;;;;;;10443321;28;20037;-23
2023/05/20 12:04:57;;;;;;;1.13;0.80;;;25.90;51.80;;;;;;10443168;28;20148;-23
2023/05/20 12:10:00;;;;;;;1.38;0.95;;;26.50;51.30;;;;;;10439115;28;20045;-21
2023/05/20 12:15:03;;;;;;;1.33;0.98;;;26.80;47.80;;;;;;10442394;28;20096;-22
2023/05/20 12:20:06;;;;;;;1.20;1.05;;;26.50;51.40;;;;;;10441844;28;20045;-23
2023/05/20 12:25:10;;;;;;;8.40;2.33;;;26.10;51.50;;;;;;10442144;28;20083;-23
2023/05/20 12:30:16;;;;;;;1.83;0.90;;;26.60;51.20;;;;;;10444496;28;20124;-22
2023/05/20 12:35:25;;;;;;;1.42;0.90;;;26.70;51.00;;;;;;10440507;28;20060;-22
2023/05/20 12:40:27;;;;;;;2.55;1.08;;;26.80;51.40;;;;;;10434078;28;20094;-23
2023/05/20 12:45:31;;;;;;;1.90;0.88;;;26.60;52.20;;;;;;10441689;28;20069;-24
2023/05/20 12:50:33;;;;;;;5.72;1.30;;;26.90;51.60;;;;;;10440763;28;20056;-22
2023/05/20 12:55:35;;;;;;;6.40;1.65;;;27.40;49.50;;;;;;10439842;28;20052;-22
2023/05/20 13:00:38;;;;;;;1.75;0.93;;;27.20;49.70;;;;;;10436918;28;20049;-22
2023/05/20 13:05:40;;;;;;;2.25;1.20;;;27.50;49.20;;;;;;10438454;28;20129;-22
2023/05/20 13:10:42;;;;;;;1.42;0.80;;;27.50;50.50;;;;;;10440244;28;20041;-23
2023/05/20 13:15:45;;;;;;;1.55;0.95;;;27.20;51.30;;;;;;10439825;28;20098;-23
2023/05/20 13:20:47;;;;;;;1.55;0.90;;;27.20;51.50;;;;;;10440159;28;20127;-23
2023/05/20 13:25:49;;;;;;;2.13;1.00;;;27.50;51.90;;;;;;10440378;28;20127;-22
2023/05/20 13:30:52;;;;;;;0.57;0.57;;;27.60;51.90;;;;;;10439949;28;20541;-22
2023/05/20 13:35:54;;;;;;;1.50;1.20;;;27.50;51.90;;;;;;10429703;28;20138;-23
2023/05/20 13:40:58;;;;;;;1.50;0.90;;;27.90;50.80;;;;;;10430138;28;20148;-20
2023/05/20 13:46:01;;;;;;;2.00;0.80;;;28.60;48.80;;;;;;10437536;28;20048;-24
2023/05/20 13:51:03;;;;;;;1.13;0.65;;;28.10;52.60;;;;;;10437868;28;20059;-24
2023/05/20 13:56:08;;;;;;;1.73;0.93;;;27.90;51.90;;;;;;10437161;28;20052;-21
2023/05/20 14:01:11;;;;;;;1.27;0.77;;;28.20;50.70;;;;;;10435974;28;20140;-21
2023/05/20 14:06:17;;;;;;;2.15;0.73;;;28.00;51.20;;;;;;10434802;28;20048;-23
2023/05/20 14:11:20;;;;;;;1.88;0.85;;;27.70;50.30;;;;;;10438399;28;20561;-22
2023/05/20 14:16:23;;;;;;;2.65;1.10;;;27.60;51.70;;;;;;10435591;28;20478;-24
2023/05/20 14:21:26;;;;;;;2.17;0.90;;;27.50;50.20;;;;;;10450216;28;20103;-23
2023/05/20 14:26:28;;;;;;;3.75;0.80;;;27.40;49.20;;;;;;10429548;28;20053;-22
2023/05/20 14:31:31;;;;;;;2.58;0.90;;;27.40;50.20;;;;;;10437103;28;20139;-24
2023/05/20 14:36:33;;;;;;;5.60;1.10;;;27.70;49.90;;;;;;10438115;28;20075;-22
2023/05/20 14:41:34;;;;;;;1.33;0.90;;;27.80;49.80;;;;;;10431699;28;20061;-22
2023/05/20 14:46:38;;;;;;;1.30;0.77;;;27.90;49.50;;;;;;10443721;28;20482;-24
2023/05/20 14:51:41;;;;;;;1.73;0.90;;;27.90;49.40;;;;;;10443382;28;20081;-21
2023/05/20 14:56:43;;;;;;;2.05;0.90;;;27.80;50.10;;;;;;10442248;28;20049;-23
2023/05/20 15:01:46;;;;;;;4.35;1.13;;;27.60;49.70;;;;;;10443274;28;20048;-23
2023/05/20 15:06:48;;;;;;;4.13;1.38;;;27.60;50.10;;;;;;10442357;28;20091;-24
2023/05/20 15:11:50;;;;;;;2.25;1.00;;;27.70;49.80;;;;;;10443746;28;20043;-23
2023/05/20 15:16:54;;;;;;;5.10;1.90;;;27.60;50.00;;;;;;10445992;28;20092;-24
2023/05/20 15:21:55;;;;;;;8.88;2.42;;;27.30;49.60;;;;;;10438856;28;20057;-24
2023/05/20 15:26:57;;;;;;;3.80;1.33;;;26.60;50.10;;;;;;10425828;28;20135;-25
2023/05/20 15:32:01;;;;;;;9.48;1.85;;;27.20;50.90;;;;;;10443124;28;20417;-24
2023/05/20 15:37:02;;;;;;;2.72;1.23;;;27.50;49.70;;;;;;10434162;28;20163;-24
2023/05/20 15:42:05;;;;;;;4.00;1.50;;;27.40;51.80;;;;;;10443218;28;20052;-30
2023/05/20 15:47:08;;;;;;;1.55;0.98;;;27.20;51.00;;;;;;10439574;28;20040;-25
2023/05/20 15:52:10;;;;;;;4.53;1.33;;;27.30;52.10;;;;;;10438422;28;20140;-23
2023/05/20 15:57:11;;;;;;;13.30;1.48;;;26.70;54.20;;;;;;10437661;28;20049;-25
2023/05/20 16:02:15;;;;;;;5.20;1.50;;;27.10;54.50;;;;;;10442541;28;20056;-24
2023/05/20 16:07:17;;;;;;;6.68;1.58;;;27.40;52.90;;;;;;10436934;28;20057;-24
2023/05/20 16:12:18;;;;;;;9.13;2.13;;;27.20;52.80;;;;;;10443650;28;20045;-25
2023/05/20 16:17:22;;;;;;;7.10;1.40;;;27.50;52.10;;;;;;10434420;28;20080;-24
2023/05/20 16:22:24;;;;;;;6.10;1.73;;;27.30;53.10;;;;;;10444331;28;20061;-23
2023/05/20 16:27:25;;;;;;;8.05;2.08;;;27.60;52.00;;;;;;10443544;28;20177;-25
2023/05/20 16:32:29;;;;;;;7.70;1.48;;;27.40;54.40;;;;;;10443106;28;20541;-25
2023/05/20 16:37:31;;;;;;;5.60;1.65;;;27.30;53.60;;;;;;10440165;28;20137;-24
2023/05/20 16:42:33;;;;;;;12.80;2.63;;;27.60;54.60;;;;;;10441388;28;20586;-25
2023/05/20 16:47:36;;;;;;;5.85;1.90;;;28.10;53.80;;;;;;10440196;28;20063;-24
2023/05/20 16:52:38;;;;;;;5.63;1.65;;;28.10;53.50;;;;;;10442323;28;20052;-24
2023/05/20 16:57:41;;;;;;;8.32;2.25;;;28.10;55.30;;;;;;10419153;28;20045;-24
2023/05/20 17:02:45;;;;;;;8.32;1.92;;;28.10;52.50;;;;;;10435692;28;20141;-24
2023/05/20 17:07:48;;;;;;;7.68;1.98;;;28.00;53.90;;;;;;10438988;28;20100;-22
2023/05/20 17:12:50;;;;;;;5.70;1.80;;;28.10;53.00;;;;;;10437774;28;20139;-25
2023/05/20 17:17:53;;;;;;;6.95;1.95;;;28.20;52.60;;;;;;10444750;28;20080;-24
2023/05/20 17:22:55;;;;;;;8.68;2.05;;;28.30;52.70;;;;;;10438366;28;20491;-25
2023/05/20 17:27:57;;;;;;;6.40;1.98;;;28.10;52.40;;;;;;10440690;28;20072;-24
2023/05/20 17:33:00;;;;;;;6.25;2.40;;;28.50;52.40;;;;;;10437309;28;20037;-24
2023/05/20 17:38:02;;;;;;;10.80;2.22;;;28.60;51.70;;;;;;10438518;28;20465;-25
2023/05/20 17:43:03;;;;;;;7.45;2.30;;;28.70;52.50;;;;;;10435597;28;20140;-25
2023/05/20 17:48:07;;;;;;;4.95;1.90;;;28.90;53.20;;;;;;10441967;28;20642;-25
2023/05/20 17:53:08;;;;;;;6.30;2.35;;;28.90;53.30;;;;;;10440523;28;20144;-25
2023/05/20 17:58:10;;;;;;;8.25;2.40;;;28.90;54.50;;;;;;10439114;28;20128;-24
2023/05/20 18:03:14;;;;;;;7.70;3.72;;;28.70;50.10;;;;;;10429510;28;20076;-23
2023/05/20 18:08:17;;;;;;;5.45;3.28;;;29.00;55.00;;;;;;10444865;28;20044;-24
2023/05/20 18:13:19;;;;;;;7.15;3.80;;;29.00;53.60;;;;;;10442820;28;20131;-25
2023/05/20 18:18:23;;;;;;;8.55;4.28;;;29.00;53.10;;;;;;10438297;28;20057;-24
2023/05/20 18:23:25;;;;;;;7.53;3.83;;;29.00;53.50;;;;;;10431277;28;20055;-24
2023/05/20 18:28:26;;;;;;;5.13;2.95;;;28.90;53.20;;;;;;10441070;28;20159;-24
2023/05/20 18:33:30;;;;;;;6.75;2.92;;;28.80;52.80;;;;;;10449885;28;20450;-25
2023/05/20 18:38:32;;;;;;;8.20;2.58;;;28.80;52.80;;;;;;10446632;28;20080;-25
2023/05/20 18:43:34;;;;;;;6.38;2.47;;;28.80;53.30;;;;;;10443884;28;20115;-23
2023/05/20 18:48:37;;;;;;;5.72;2.97;;;28.60;52.90;;;;;;10436940;28;20342;-25
2023/05/20 18:53:39;;;;;;;5.75;1.83;;;28.70;54.10;;;;;;10444673;28;20092;-23
2023/05/20 18:58:41;;;;;;;10.27;1.90;;;28.30;52.20;;;;;;10444970;28;20080;-25
2023/05/20 19:03:44;;;;;;;4.53;2.15;;;28.60;52.30;;;;;;10452599;28;20144;-24
2023/05/20 19:08:47;;;;;;;3.88;1.60;;;28.50;53.80;;;;;;10452954;28;20129;-23
2023/05/20 19:13:49;;;;;;;3.88;1.80;;;28.60;52.80;;;;;;10451319;28;20045;-24
2023/05/20 19:18:52;;;;;;;4.80;1.90;;;28.50;52.40;;;;;;10451493;28;20072;-25
2023/05/20 19:23:55;;;;;;;5.43;1.58;;;28.50;52.40;;;;;;10451647;28;20045;-24
2023/05/20 19:28:56;;;;;;;3.90;1.63;;;28.30;52.40;;;;;;10445279;28;20055;-24
2023/05/20 19:34:00;;;;;;;4.75;1.85;;;28.30;52.80;;;;;;10450050;28;20154;-24
2023/05/20 19:39:01;;;;;;;3.28;1.38;;;28.20;52.40;;;;;;10451023;28;20550;-24
2023/05/20 19:44:04;;;;;;;3.75;1.88;;;28.10;52.80;;;;;;10447144;28;20537;-24
2023/05/20 19:49:07;;;;;;;4.35;1.50;;;28.10;52.60;;;;;;10450442;28;20481;-24
2023/05/20 19:54:09;;;;;;;6.95;1.88;;;28.10;52.60;;;;;;10449933;28;20053;-24
2023/05/20 19:59:11;;;;;;;3.50;1.83;;;27.90;52.50;;;;;;10450798;28;20402;-25
2023/05/20 20:04:17;;;;;;;2.40;1.33;;;27.90;52.70;;;;;;10449730;28;20123;-24
2023/05/20 20:09:19;;;;;;;3.08;1.48;;;27.80;52.80;;;;;;10451630;28;20049;-24
2023/05/20 20:14:21;;;;;;;5.20;1.50;;;27.70;52.80;;;;;;10449304;28;20052;-24
2023/05/20 20:19:24;;;;;;;6.18;1.65;;;27.80;53.00;;;;;;10450661;28;20049;-24
2023/05/20 20:24:26;;;;;;;2.97;1.40;;;27.70;52.80;;;;;;10449918;28;20457;-24
2023/05/20 20:29:28;;;;;;;3.03;1.30;;;27.60;52.80;;;;;;10451413;28;20140;-24
2023/05/20 20:34:31;;;;;;;7.13;1.80;;;27.60;52.90;;;;;;10447480;28;20059;-24
2023/05/20 20:39:33;;;;;;;3.83;1.30;;;27.60;53.00;;;;;;10449116;28;20135;-24
2023/05/20 20:44:35;;;;;;;4.22;1.30;;;27.50;53.00;;;;;;10449057;28;20101;-24
2023/05/20 20:49:38;;;;;;;9.32;1.38;;;27.30;52.90;;;;;;10448728;28;20084;-24
2023/05/20 20:54:40;;;;;;;9.73;1.40;;;27.30;53.60;;;;;;10450107;28;20045;-24
2023/05/20 20:59:46;;;;;;;5.75;1.13;;;27.20;52.90;;;;;;10444805;28;20763;-25
2023/05/20 21:04:49;;;;;;;3.85;1.45;;;27.20;53.00;;;;;;10441325;28;20170;-23
2023/05/20 21:09:53;;;;;;;3.78;1.05;;;27.20;53.20;;;;;;10446967;28;20041;-24
2023/05/20 21:14:56;;;;;;;2.55;1.05;;;27.00;53.50;;;;;;10448009;28;20055;-24
2023/05/20 21:19:59;;;;;;;11.75;1.40;;;27.00;53.40;;;;;;10449081;28;20091;-24
2023/05/20 21:25:01;;;;;;;3.00;1.20;;;27.00;53.60;;;;;;10448932;28;20059;-24
2023/05/20 21:30:02;;;;;;;3.00;1.05;;;26.90;53.70;;;;;;10448327;28;20047;-24
2023/05/20 21:35:07;;;;;;;5.68;1.10;;;26.90;53.70;;;;;;10448460;28;20135;-24
2023/05/20 21:40:09;;;;;;;5.13;1.30;;;26.80;53.70;;;;;;10453016;28;20649;-24
2023/05/20 21:45:11;;;;;;;5.13;1.20;;;26.80;53.80;;;;;;10424426;28;20045;-25
2023/05/20 21:50:15;;;;;;;1.88;0.77;;;26.80;53.90;;;;;;10445431;28;20132;-24
2023/05/20 21:55:22;;;;;;;9.65;1.10;;;26.70;54.40;;;;;;10442471;28;20098;-24
2023/05/20 22:00:24;;;;;;;1.67;1.10;;;26.70;54.00;;;;;;10442582;28;20099;-24
2023/05/20 22:05:27;;;;;;;6.78;1.25;;;26.60;54.00;;;;;;10443016;28;20127;-24
2023/05/20 22:10:32;;;;;;;2.20;1.00;;;26.60;54.10;;;;;;10448500;28;20127;-24
2023/05/20 22:15:34;;;;;;;5.55;1.10;;;26.50;54.20;;;;;;10443489;28;20126;-24
2023/05/20 22:20:38;;;;;;;7.32;1.35;;;26.40;54.30;;;;;;10436726;28;20111;-25
2023/05/20 22:25:40;;;;;;;3.17;0.90;;;26.40;54.40;;;;;;10440075;28;20544;-24
2023/05/20 22:30:42;;;;;;;3.72;1.00;;;26.30;54.40;;;;;;10442985;28;20083;-25
2023/05/20 22:35:45;;;;;;;2.13;1.10;;;26.30;54.50;;;;;;10450370;28;20140;-25
2023/05/20 22:40:47;;;;;;;2.60;0.73;;;26.30;54.70;;;;;;10445678;28;20131;-25
2023/05/20 22:45:49;;;;;;;1.83;0.98;;;26.20;54.60;;;;;;10455393;28;20041;-24
2023/05/20 22:50:52;;;;;;;2.97;1.05;;;26.20;54.70;;;;;;10453680;28;20085;-24
2023/05/20 22:55:55;;;;;;;2.67;1.00;;;26.20;54.80;;;;;;10452611;28;20053;-22
2023/05/20 23:00:58;;;;;;;2.25;0.80;;;26.10;55.00;;;;;;10456335;28;20053;-24
2023/05/20 23:06:01;;;;;;;2.85;1.08;;;26.10;55.10;;;;;;10451214;28;20071;-24
2023/05/20 23:11:03;;;;;;;5.55;1.10;;;26.00;55.20;;;;;;10452005;28;20072;-26
2023/05/20 23:16:06;;;;;;;7.60;1.20;;;26.00;55.40;;;;;;10451935;28;20077;-24
2023/05/20 23:21:09;;;;;;;4.68;1.05;;;25.90;55.40;;;;;;10450333;28;20052;-24
2023/05/20 23:26:11;;;;;;;3.65;1.27;;;25.90;55.50;;;;;;10452728;28;20148;-24
2023/05/20 23:31:13;;;;;;;1.98;0.95;;;25.90;55.60;;;;;;10451961;28;20065;-24
2023/05/20 23:36:16;;;;;;;3.97;1.02;;;25.90;55.60;;;;;;10454908;28;20049;-24
2023/05/20 23:41:18;;;;;;;3.08;1.10;;;25.80;55.70;;;;;;10453347;28;20131;-23
2023/05/20 23:46:20;;;;;;;4.57;1.40;;;25.70;55.90;;;;;;10455566;28;20375;-21
2023/05/20 23:51:23;;;;;;;4.50;1.67;;;25.70;56.10;;;;;;10450499;28;20136;-23
2023/05/20 23:56:25;;;;;;;2.90;1.25;;;25.60;56.20;;;;;;10454275;28;20139;-24
